sensor_id;sensor_type;location;lat;lon;timestamp;P1;durP1;ratioP1;P2;durP2;ratioP2
15130;SDS011;7666;50.920;4.628;2023-07-08T00:00:12;6.20;;;4.40;;
15130;SDS011;7666;50.920;4.628;2023-07-08T00:03:01;5.63;;;4.20;;
15130;SDS011;7666;50.920;4.628;2023-07-08T00:05:47;7.03;;;4.03;;
15130;SDS011;7666;50.920;4.628;2023-07-08T00:08:35;6.03;;;4.07;;
15130;SDS011;7666;50.920;4.628;2023-07-08T00:11:22;5.00;;;3.70;;
15130;SDS011;7666;50.920;4.628;2023-07-08T00:14:08;5.10;;;4.13;;
15130;SDS011;7666;50.920;4.628;2023-07-08T00:16:54;6.10;;;4.20;;
15130;SDS011;7666;50.920;4.628;2023-07-08T00:19:40;4.40;;;3.80;;
15130;SDS011;7666;50.920;4.628;2023-07-08T00:22:26;5.83;;;4.13;;
15130;SDS011;7666;50.920;4.628;2023-07-08T00:25:13;4.33;;;3.90;;
15130;SDS011;7666;50.920;4.628;2023-07-08T00:28:02;6.43;;;4.13;;
15130;SDS011;7666;50.920;4.628;2023-07-08T00:30:57;6.97;;;3.43;;
15130;SDS011;7666;50.920;4.628;2023-07-08T00:33:43;5.67;;;4.30;;
15130;SDS011;7666;50.920;4.628;2023-07-08T00:36:29;6.83;;;3.90;;
15130;SDS011;7666;50.920;4.628;2023-07-08T00:39:16;5.20;;;3.83;;
15130;SDS011;7666;50.920;4.628;2023-07-08T00:42:03;6.03;;;4.63;;
15130;SDS011;7666;50.920;4.628;2023-07-08T00:44:58;7.63;;;4.50;;
15130;SDS011;7666;50.920;4.628;2023-07-08T00:47:45;6.43;;;4.27;;
15130;SDS011;7666;50.920;4.628;2023-07-08T00:50:31;7.37;;;4.60;;
15130;SDS011;7666;50.920;4.628;2023-07-08T00:53:21;5.63;;;4.10;;
15130;SDS011;7666;50.920;4.628;2023-07-08T00:56:09;5.00;;;4.50;;
15130;SDS011;7666;50.920;4.628;2023-07-08T00:58:58;5.07;;;4.57;;
15130;SDS011;7666;50.920;4.628;2023-07-08T01:01:56;5.90;;;4.17;;
15130;SDS011;7666;50.920;4.628;2023-07-08T01:04:49;4.90;;;4.40;;
15130;SDS011;7666;50.920;4.628;2023-07-08T01:07:36;4.07;;;3.67;;
15130;SDS011;7666;50.920;4.628;2023-07-08T01:10:28;5.67;;;4.33;;
15130;SDS011;7666;50.920;4.628;2023-07-08T01:13:24;5.10;;;4.60;;
15130;SDS011;7666;50.920;4.628;2023-07-08T01:16:10;5.30;;;4.30;;
15130;SDS011;7666;50.920;4.628;2023-07-08T01:18:56;6.37;;;4.33;;
15130;SDS011;7666;50.920;4.628;2023-07-08T01:22:26;5.23;;;4.10;;
15130;SDS011;7666;50.920;4.628;2023-07-08T01:24:53;6.53;;;4.20;;
15130;SDS011;7666;50.920;4.628;2023-07-08T01:27:40;5.47;;;4.87;;
15130;SDS011;7666;50.920;4.628;2023-07-08T01:30:30;5.70;;;4.27;;
15130;SDS011;7666;50.920;4.628;2023-07-08T01:33:17;6.73;;;5.03;;
15130;SDS011;7666;50.920;4.628;2023-07-08T01:36:08;5.70;;;4.30;;
15130;SDS011;7666;50.920;4.628;2023-07-08T01:38:56;6.43;;;4.97;;
15130;SDS011;7666;50.920;4.628;2023-07-08T01:41:42;5.17;;;4.60;;
15130;SDS011;7666;50.920;4.628;2023-07-08T01:47:16;4.93;;;4.13;;
15130;SDS011;7666;50.920;4.628;2023-07-08T01:50:04;5.67;;;4.03;;
15130;SDS011;7666;50.920;4.628;2023-07-08T01:52:50;7.53;;;4.47;;
15130;SDS011;7666;50.920;4.628;2023-07-08T01:55:38;7.67;;;4.40;;
15130;SDS011;7666;50.920;4.628;2023-07-08T01:58:24;5.83;;;3.93;;
15130;SDS011;7666;50.920;4.628;2023-07-08T02:01:11;5.33;;;3.97;;
15130;SDS011;7666;50.920;4.628;2023-07-08T02:03:57;6.17;;;4.40;;
15130;SDS011;7666;50.920;4.628;2023-07-08T02:06:43;5.00;;;4.50;;
15130;SDS011;7666;50.920;4.628;2023-07-08T02:09:35;8.10;;;4.40;;
15130;SDS011;7666;50.920;4.628;2023-07-08T02:12:21;4.90;;;4.03;;
15130;SDS011;7666;50.920;4.628;2023-07-08T02:15:09;5.10;;;4.50;;
15130;SDS011;7666;50.920;4.628;2023-07-08T02:17:56;6.17;;;4.20;;
15130;SDS011;7666;50.920;4.628;2023-07-08T02:20:42;7.93;;;4.27;;
15130;SDS011;7666;50.920;4.628;2023-07-08T02:23:28;7.20;;;4.60;;
15130;SDS011;7666;50.920;4.628;2023-07-08T02:26:14;5.97;;;4.43;;
15130;SDS011;7666;50.920;4.628;2023-07-08T02:29:00;7.93;;;4.47;;
15130;SDS011;7666;50.920;4.628;2023-07-08T02:31:48;5.40;;;4.50;;
15130;SDS011;7666;50.920;4.628;2023-07-08T02:34:34;7.20;;;4.90;;
15130;SDS011;7666;50.920;4.628;2023-07-08T02:37:19;4.87;;;4.30;;
15130;SDS011;7666;50.920;4.628;2023-07-08T02:40:06;6.90;;;4.30;;
15130;SDS011;7666;50.920;4.628;2023-07-08T02:42:52;7.33;;;4.60;;
15130;SDS011;7666;50.920;4.628;2023-07-08T02:45:38;5.63;;;4.50;;
15130;SDS011;7666;50.920;4.628;2023-07-08T02:48:24;5.00;;;4.17;;
15130;SDS011;7666;50.920;4.628;2023-07-08T02:51:10;8.27;;;4.33;;
15130;SDS011;7666;50.920;4.628;2023-07-08T02:53:56;7.53;;;4.30;;
15130;SDS011;7666;50.920;4.628;2023-07-08T02:56:42;6.13;;;4.67;;
15130;SDS011;7666;50.920;4.628;2023-07-08T02:59:29;6.20;;;4.87;;
15130;SDS011;7666;50.920;4.628;2023-07-08T03:02:15;8.17;;;4.93;;
15130;SDS011;7666;50.920;4.628;2023-07-08T03:05:01;6.40;;;4.63;;
15130;SDS011;7666;50.920;4.628;2023-07-08T03:07:47;5.20;;;4.70;;
15130;SDS011;7666;50.920;4.628;2023-07-08T03:10:32;6.90;;;4.40;;
15130;SDS011;7666;50.920;4.628;2023-07-08T03:13:18;6.27;;;4.47;;
15130;SDS011;7666;50.920;4.628;2023-07-08T03:16:04;4.87;;;3.70;;
15130;SDS011;7666;50.920;4.628;2023-07-08T03:18:57;5.23;;;4.20;;
15130;SDS011;7666;50.920;4.628;2023-07-08T03:21:43;8.27;;;4.30;;
15130;SDS011;7666;50.920;4.628;2023-07-08T03:24:29;8.37;;;4.50;;
15130;SDS011;7666;50.920;4.628;2023-07-08T03:27:15;7.13;;;4.67;;
15130;SDS011;7666;50.920;4.628;2023-07-08T03:30:02;6.20;;;4.77;;
15130;SDS011;7666;50.920;4.628;2023-07-08T03:32:50;6.53;;;4.63;;
15130;SDS011;7666;50.920;4.628;2023-07-08T03:35:36;7.43;;;4.60;;
15130;SDS011;7666;50.920;4.628;2023-07-08T03:38:24;6.33;;;4.77;;
15130;SDS011;7666;50.920;4.628;2023-07-08T03:41:09;8.50;;;4.80;;
15130;SDS011;7666;50.920;4.628;2023-07-08T03:43:55;6.90;;;4.73;;
15130;SDS011;7666;50.920;4.628;2023-07-08T03:46:44;6.27;;;4.17;;
15130;SDS011;7666;50.920;4.628;2023-07-08T03:49:32;8.73;;;4.57;;
15130;SDS011;7666;50.920;4.628;2023-07-08T03:52:18;5.47;;;4.60;;
15130;SDS011;7666;50.920;4.628;2023-07-08T03:55:04;9.00;;;4.90;;
15130;SDS011;7666;50.920;4.628;2023-07-08T03:57:50;4.83;;;4.33;;
15130;SDS011;7666;50.920;4.628;2023-07-08T04:00:36;8.90;;;4.60;;
15130;SDS011;7666;50.920;4.628;2023-07-08T04:03:22;7.53;;;4.87;;
15130;SDS011;7666;50.920;4.628;2023-07-08T04:06:08;5.23;;;4.43;;
15130;SDS011;7666;50.920;4.628;2023-07-08T04:08:54;6.70;;;4.60;;
15130;SDS011;7666;50.920;4.628;2023-07-08T04:11:40;7.80;;;5.10;;
15130;SDS011;7666;50.920;4.628;2023-07-08T04:14:26;6.80;;;5.23;;
15130;SDS011;7666;50.920;4.628;2023-07-08T04:17:12;6.80;;;5.20;;
15130;SDS011;7666;50.920;4.628;2023-07-08T04:19:59;7.63;;;5.03;;
15130;SDS011;7666;50.920;4.628;2023-07-08T04:22:51;7.67;;;5.50;;
15130;SDS011;7666;50.920;4.628;2023-07-08T04:25:37;9.97;;;5.87;;
15130;SDS011;7666;50.920;4.628;2023-07-08T04:28:23;9.40;;;6.17;;
15130;SDS011;7666;50.920;4.628;2023-07-08T04:31:09;7.43;;;5.43;;
15130;SDS011;7666;50.920;4.628;2023-07-08T04:33:55;7.07;;;6.03;;
15130;SDS011;7666;50.920;4.628;2023-07-08T04:36:41;8.13;;;6.07;;
15130;SDS011;7666;50.920;4.628;2023-07-08T04:39:29;8.07;;;6.20;;
15130;SDS011;7666;50.920;4.628;2023-07-08T04:42:16;7.40;;;6.00;;
15130;SDS011;7666;50.920;4.628;2023-07-08T04:45:02;6.30;;;5.30;;
15130;SDS011;7666;50.920;4.628;2023-07-08T04:47:51;7.33;;;5.23;;
15130;SDS011;7666;50.920;4.628;2023-07-08T04:50:39;9.13;;;5.77;;
15130;SDS011;7666;50.920;4.628;2023-07-08T04:53:31;7.57;;;5.53;;
15130;SDS011;7666;50.920;4.628;2023-07-08T04:56:17;7.83;;;5.37;;
15130;SDS011;7666;50.920;4.628;2023-07-08T04:59:04;7.07;;;5.23;;
15130;SDS011;7666;50.920;4.628;2023-07-08T05:01:51;7.03;;;5.10;;
15130;SDS011;7666;50.920;4.628;2023-07-08T05:04:38;6.73;;;5.20;;
15130;SDS011;7666;50.920;4.628;2023-07-08T05:07:24;6.43;;;4.70;;
15130;SDS011;7666;50.920;4.628;2023-07-08T05:10:10;6.27;;;5.07;;
15130;SDS011;7666;50.920;4.628;2023-07-08T05:12:56;7.67;;;4.93;;
15130;SDS011;7666;50.920;4.628;2023-07-08T05:15:42;7.63;;;4.93;;
15130;SDS011;7666;50.920;4.628;2023-07-08T05:18:28;8.13;;;5.13;;
15130;SDS011;7666;50.920;4.628;2023-07-08T05:21:14;7.50;;;5.33;;
15130;SDS011;7666;50.920;4.628;2023-07-08T05:24:04;7.07;;;5.07;;
15130;SDS011;7666;50.920;4.628;2023-07-08T05:26:51;7.93;;;5.10;;
15130;SDS011;7666;50.920;4.628;2023-07-08T05:29:37;7.97;;;5.15;;
15130;SDS011;7666;50.920;4.628;2023-07-08T05:32:23;6.53;;;4.80;;
15130;SDS011;7666;50.920;4.628;2023-07-08T05:35:10;10.30;;;5.75;;
15130;SDS011;7666;50.920;4.628;2023-07-08T05:37:56;6.57;;;4.63;;
15130;SDS011;7666;50.920;4.628;2023-07-08T05:40:42;7.18;;;4.93;;
15130;SDS011;7666;50.920;4.628;2023-07-08T05:43:28;6.68;;;5.30;;
15130;SDS011;7666;50.920;4.628;2023-07-08T05:46:14;9.00;;;5.80;;
15130;SDS011;7666;50.920;4.628;2023-07-08T05:49:00;11.38;;;5.50;;
15130;SDS011;7666;50.920;4.628;2023-07-08T05:51:46;9.50;;;6.40;;
15130;SDS011;7666;50.920;4.628;2023-07-08T05:54:32;7.65;;;5.78;;
15130;SDS011;7666;50.920;4.628;2023-07-08T05:57:18;6.70;;;5.75;;
15130;SDS011;7666;50.920;4.628;2023-07-08T06:00:04;10.45;;;5.63;;
15130;SDS011;7666;50.920;4.628;2023-07-08T06:02:51;10.02;;;5.65;;
15130;SDS011;7666;50.920;4.628;2023-07-08T06:05:37;7.63;;;5.70;;
15130;SDS011;7666;50.920;4.628;2023-07-08T06:08:24;9.30;;;5.68;;
15130;SDS011;7666;50.920;4.628;2023-07-08T06:11:10;9.35;;;5.40;;
15130;SDS011;7666;50.920;4.628;2023-07-08T06:13:56;7.65;;;6.20;;
15130;SDS011;7666;50.920;4.628;2023-07-08T06:16:43;8.88;;;6.18;;
15130;SDS011;7666;50.920;4.628;2023-07-08T06:19:29;7.18;;;5.93;;
15130;SDS011;7666;50.920;4.628;2023-07-08T06:22:15;7.88;;;5.45;;
15130;SDS011;7666;50.920;4.628;2023-07-08T06:25:01;7.45;;;6.18;;
15130;SDS011;7666;50.920;4.628;2023-07-08T06:27:47;7.32;;;6.18;;
15130;SDS011;7666;50.920;4.628;2023-07-08T06:30:33;8.32;;;6.22;;
15130;SDS011;7666;50.920;4.628;2023-07-08T06:33:20;7.60;;;6.05;;
15130;SDS011;7666;50.920;4.628;2023-07-08T06:36:06;7.68;;;5.85;;
15130;SDS011;7666;50.920;4.628;2023-07-08T06:38:53;9.38;;;6.13;;
15130;SDS011;7666;50.920;4.628;2023-07-08T06:41:39;7.00;;;5.57;;
15130;SDS011;7666;50.920;4.628;2023-07-08T06:44:26;8.35;;;6.15;;
15130;SDS011;7666;50.920;4.628;2023-07-08T06:47:12;8.23;;;5.80;;
15130;SDS011;7666;50.920;4.628;2023-07-08T06:49:58;9.82;;;5.88;;
15130;SDS011;7666;50.920;4.628;2023-07-08T06:52:45;8.27;;;6.55;;
15130;SDS011;7666;50.920;4.628;2023-07-08T06:55:31;8.57;;;6.18;;
15130;SDS011;7666;50.920;4.628;2023-07-08T06:58:18;8.80;;;6.63;;
15130;SDS011;7666;50.920;4.628;2023-07-08T07:01:04;8.32;;;6.00;;
15130;SDS011;7666;50.920;4.628;2023-07-08T07:03:50;6.93;;;5.95;;
15130;SDS011;7666;50.920;4.628;2023-07-08T07:06:37;8.32;;;5.85;;
15130;SDS011;7666;50.920;4.628;2023-07-08T07:09:23;8.02;;;6.15;;
15130;SDS011;7666;50.920;4.628;2023-07-08T07:12:09;8.82;;;6.25;;
15130;SDS011;7666;50.920;4.628;2023-07-08T07:14:56;10.65;;;6.03;;
15130;SDS011;7666;50.920;4.628;2023-07-08T07:17:42;8.23;;;5.60;;
15130;SDS011;7666;50.920;4.628;2023-07-08T07:20:29;12.48;;;6.53;;
15130;SDS011;7666;50.920;4.628;2023-07-08T07:23:16;7.90;;;5.80;;
15130;SDS011;7666;50.920;4.628;2023-07-08T07:26:02;9.02;;;6.60;;
15130;SDS011;7666;50.920;4.628;2023-07-08T07:28:49;8.50;;;6.32;;
15130;SDS011;7666;50.920;4.628;2023-07-08T07:31:36;7.25;;;5.78;;
15130;SDS011;7666;50.920;4.628;2023-07-08T07:34:25;9.40;;;6.28;;
15130;SDS011;7666;50.920;4.628;2023-07-08T07:37:12;9.30;;;6.10;;
15130;SDS011;7666;50.920;4.628;2023-07-08T07:39:58;10.50;;;6.20;;
15130;SDS011;7666;50.920;4.628;2023-07-08T07:42:45;9.25;;;5.78;;
15130;SDS011;7666;50.920;4.628;2023-07-08T07:45:32;7.45;;;6.20;;
15130;SDS011;7666;50.920;4.628;2023-07-08T07:48:21;9.23;;;5.85;;
15130;SDS011;7666;50.920;4.628;2023-07-08T07:51:09;9.70;;;6.07;;
15130;SDS011;7666;50.920;4.628;2023-07-08T07:53:56;8.98;;;5.95;;
15130;SDS011;7666;50.920;4.628;2023-07-08T07:56:42;7.63;;;5.75;;
15130;SDS011;7666;50.920;4.628;2023-07-08T07:59:29;9.23;;;5.68;;
15130;SDS011;7666;50.920;4.628;2023-07-08T08:02:16;10.13;;;6.30;;
15130;SDS011;7666;50.920;4.628;2023-07-08T08:05:02;7.82;;;5.78;;
15130;SDS011;7666;50.920;4.628;2023-07-08T08:07:49;10.70;;;6.43;;
15130;SDS011;7666;50.920;4.628;2023-07-08T08:10:35;9.15;;;6.22;;
15130;SDS011;7666;50.920;4.628;2023-07-08T08:13:21;13.45;;;6.32;;
15130;SDS011;7666;50.920;4.628;2023-07-08T08:16:08;9.80;;;6.00;;
15130;SDS011;7666;50.920;4.628;2023-07-08T08:18:54;8.55;;;6.15;;
15130;SDS011;7666;50.920;4.628;2023-07-08T08:21:41;8.10;;;6.05;;
15130;SDS011;7666;50.920;4.628;2023-07-08T08:24:27;10.20;;;5.90;;
15130;SDS011;7666;50.920;4.628;2023-07-08T08:27:13;6.63;;;5.85;;
15130;SDS011;7666;50.920;4.628;2023-07-08T08:30:00;8.93;;;6.32;;
15130;SDS011;7666;50.920;4.628;2023-07-08T08:32:46;9.55;;;5.88;;
15130;SDS011;7666;50.920;4.628;2023-07-08T08:35:33;8.63;;;6.22;;
15130;SDS011;7666;50.920;4.628;2023-07-08T08:38:19;8.13;;;6.18;;
15130;SDS011;7666;50.920;4.628;2023-07-08T08:41:10;7.65;;;6.28;;
15130;SDS011;7666;50.920;4.628;2023-07-08T08:43:58;9.60;;;5.90;;
15130;SDS011;7666;50.920;4.628;2023-07-08T08:47:06;6.90;;;6.18;;
15130;SDS011;7666;50.920;4.628;2023-07-08T08:49:57;6.82;;;6.03;;
15130;SDS011;7666;50.920;4.628;2023-07-08T08:52:46;10.02;;;6.43;;
15130;SDS011;7666;50.920;4.628;2023-07-08T08:55:33;7.70;;;6.05;;
15130;SDS011;7666;50.920;4.628;2023-07-08T09:01:18;9.80;;;6.15;;
15130;SDS011;7666;50.920;4.628;2023-07-08T09:04:15;9.48;;;6.35;;
15130;SDS011;7666;50.920;4.628;2023-07-08T09:07:07;8.48;;;6.25;;
15130;SDS011;7666;50.920;4.628;2023-07-08T09:12:40;7.25;;;6.55;;
15130;SDS011;7666;50.920;4.628;2023-07-08T09:15:27;7.90;;;6.03;;
15130;SDS011;7666;50.920;4.628;2023-07-08T09:18:15;9.30;;;6.75;;
15130;SDS011;7666;50.920;4.628;2023-07-08T09:21:06;8.00;;;6.07;;
15130;SDS011;7666;50.920;4.628;2023-07-08T09:24:00;8.40;;;6.40;;
15130;SDS011;7666;50.920;4.628;2023-07-08T09:26:48;10.75;;;6.95;;
15130;SDS011;7666;50.920;4.628;2023-07-08T09:29:36;10.02;;;6.25;;
15130;SDS011;7666;50.920;4.628;2023-07-08T09:32:24;8.38;;;5.78;;
15130;SDS011;7666;50.920;4.628;2023-07-08T09:35:16;9.02;;;6.55;;
15130;SDS011;7666;50.920;4.628;2023-07-08T09:38:06;9.15;;;6.05;;
15130;SDS011;7666;50.920;4.628;2023-07-08T09:40:53;6.82;;;6.03;;
15130;SDS011;7666;50.920;4.628;2023-07-08T09:43:41;10.02;;;6.57;;
15130;SDS011;7666;50.920;4.628;2023-07-08T09:46:28;7.10;;;6.40;;
15130;SDS011;7666;50.920;4.628;2023-07-08T09:49:15;7.80;;;6.68;;
15130;SDS011;7666;50.920;4.628;2023-07-08T09:52:03;8.00;;;6.55;;
15130;SDS011;7666;50.920;4.628;2023-07-08T09:54:50;7.65;;;6.40;;
15130;SDS011;7666;50.920;4.628;2023-07-08T09:57:37;8.27;;;6.75;;
15130;SDS011;7666;50.920;4.628;2023-07-08T10:00:28;7.47;;;6.10;;
15130;SDS011;7666;50.920;4.628;2023-07-08T10:03:26;10.57;;;6.47;;
15130;SDS011;7666;50.920;4.628;2023-07-08T10:06:26;7.22;;;6.50;;
15130;SDS011;7666;50.920;4.628;2023-07-08T10:09:14;7.97;;;6.47;;
15130;SDS011;7666;50.920;4.628;2023-07-08T10:12:05;7.65;;;6.65;;
15130;SDS011;7666;50.920;4.628;2023-07-08T10:14:59;8.13;;;6.28;;
15130;SDS011;7666;50.920;4.628;2023-07-08T10:17:48;8.98;;;6.25;;
15130;SDS011;7666;50.920;4.628;2023-07-08T10:26:36;8.93;;;6.97;;
15130;SDS011;7666;50.920;4.628;2023-07-08T10:29:35;9.32;;;6.55;;
15130;SDS011;7666;50.920;4.628;2023-07-08T10:35:15;8.13;;;7.07;;
15130;SDS011;7666;50.920;4.628;2023-07-08T10:40:50;9.18;;;6.57;;
15130;SDS011;7666;50.920;4.628;2023-07-08T10:46:49;8.73;;;6.70;;
15130;SDS011;7666;50.920;4.628;2023-07-08T10:49:52;7.68;;;6.88;;
15130;SDS011;7666;50.920;4.628;2023-07-08T11:07:30;8.10;;;6.40;;
15130;SDS011;7666;50.920;4.628;2023-07-08T11:10:23;7.75;;;6.00;;
15130;SDS011;7666;50.920;4.628;2023-07-08T11:13:13;8.93;;;6.75;;
15130;SDS011;7666;50.920;4.628;2023-07-08T11:16:05;9.55;;;6.53;;
15130;SDS011;7666;50.920;4.628;2023-07-08T11:18:53;9.43;;;6.18;;
15130;SDS011;7666;50.920;4.628;2023-07-08T11:21:42;7.30;;;6.28;;
15130;SDS011;7666;50.920;4.628;2023-07-08T11:24:49;8.88;;;6.75;;
15130;SDS011;7666;50.920;4.628;2023-07-08T11:27:37;8.80;;;6.85;;
15130;SDS011;7666;50.920;4.628;2023-07-08T11:30:27;7.93;;;6.47;;
15130;SDS011;7666;50.920;4.628;2023-07-08T11:33:15;9.02;;;6.38;;
15130;SDS011;7666;50.920;4.628;2023-07-08T11:36:03;10.60;;;6.72;;
15130;SDS011;7666;50.920;4.628;2023-07-08T11:38:51;8.98;;;6.30;;
15130;SDS011;7666;50.920;4.628;2023-07-08T11:41:38;9.25;;;6.32;;
15130;SDS011;7666;50.920;4.628;2023-07-08T11:44:25;8.15;;;6.35;;
15130;SDS011;7666;50.920;4.628;2023-07-08T11:47:18;7.18;;;5.28;;
15130;SDS011;7666;50.920;4.628;2023-07-08T11:53:13;7.85;;;5.45;;
15130;SDS011;7666;50.920;4.628;2023-07-08T11:59:10;11.25;;;6.13;;
15130;SDS011;7666;50.920;4.628;2023-07-08T12:02:02;8.52;;;5.55;;
15130;SDS011;7666;50.920;4.628;2023-07-08T12:07:45;8.77;;;6.20;;
15130;SDS011;7666;50.920;4.628;2023-07-08T12:10:40;8.68;;;5.57;;
15130;SDS011;7666;50.920;4.628;2023-07-08T12:13:29;9.15;;;5.32;;
15130;SDS011;7666;50.920;4.628;2023-07-08T12:16:16;8.27;;;5.57;;
15130;SDS011;7666;50.920;4.628;2023-07-08T12:19:02;9.60;;;6.13;;
15130;SDS011;7666;50.920;4.628;2023-07-08T12:21:51;7.88;;;5.43;;
15130;SDS011;7666;50.920;4.628;2023-07-08T12:24:38;11.43;;;5.93;;
15130;SDS011;7666;50.920;4.628;2023-07-08T12:27:24;9.50;;;5.18;;
15130;SDS011;7666;50.920;4.628;2023-07-08T12:30:11;8.88;;;5.45;;
15130;SDS011;7666;50.920;4.628;2023-07-08T12:32:58;8.38;;;5.28;;
15130;SDS011;7666;50.920;4.628;2023-07-08T12:35:45;10.88;;;5.45;;
15130;SDS011;7666;50.920;4.628;2023-07-08T12:38:32;9.20;;;5.13;;
15130;SDS011;7666;50.920;4.628;2023-07-08T12:41:28;6.88;;;5.57;;
15130;SDS011;7666;50.920;4.628;2023-07-08T12:44:20;6.97;;;4.93;;
15130;SDS011;7666;50.920;4.628;2023-07-08T12:47:07;7.25;;;5.03;;
15130;SDS011;7666;50.920;4.628;2023-07-08T12:49:54;8.10;;;5.15;;
15130;SDS011;7666;50.920;4.628;2023-07-08T12:52:44;8.52;;;4.82;;
15130;SDS011;7666;50.920;4.628;2023-07-08T12:55:31;8.20;;;4.95;;
15130;SDS011;7666;50.920;4.628;2023-07-08T12:58:24;8.32;;;4.80;;
15130;SDS011;7666;50.920;4.628;2023-07-08T13:01:15;25.40;;;4.88;;
15130;SDS011;7666;50.920;4.628;2023-07-08T13:04:03;14.10;;;4.68;;
15130;SDS011;7666;50.920;4.628;2023-07-08T13:06:50;10.43;;;3.88;;
15130;SDS011;7666;50.920;4.628;2023-07-08T13:09:41;13.75;;;2.90;;
15130;SDS011;7666;50.920;4.628;2023-07-08T13:12:30;8.35;;;3.00;;
15130;SDS011;7666;50.920;4.628;2023-07-08T13:15:20;14.55;;;2.70;;
15130;SDS011;7666;50.920;4.628;2023-07-08T13:21:26;22.42;;;3.65;;
15130;SDS011;7666;50.920;4.628;2023-07-08T13:24:13;8.82;;;3.42;;
15130;SDS011;7666;50.920;4.628;2023-07-08T13:26:59;8.07;;;3.10;;
15130;SDS011;7666;50.920;4.628;2023-07-08T13:29:46;8.75;;;3.47;;
15130;SDS011;7666;50.920;4.628;2023-07-08T13:32:33;10.18;;;3.40;;
15130;SDS011;7666;50.920;4.628;2023-07-08T13:35:34;9.15;;;3.42;;
15130;SDS011;7666;50.920;4.628;2023-07-08T13:38:22;9.00;;;3.50;;
15130;SDS011;7666;50.920;4.628;2023-07-08T13:41:09;6.32;;;3.55;;
15130;SDS011;7666;50.920;4.628;2023-07-08T13:43:57;5.20;;;3.22;;
15130;SDS011;7666;50.920;4.628;2023-07-08T13:49:40;5.50;;;3.10;;
15130;SDS011;7666;50.920;4.628;2023-07-08T13:52:29;6.50;;;2.80;;
15130;SDS011;7666;50.920;4.628;2023-07-08T13:55:17;8.40;;;3.10;;
15130;SDS011;7666;50.920;4.628;2023-07-08T13:58:04;7.35;;;3.40;;
15130;SDS011;7666;50.920;4.628;2023-07-08T14:00:56;4.28;;;2.97;;
15130;SDS011;7666;50.920;4.628;2023-07-08T14:03:43;6.63;;;3.25;;
15130;SDS011;7666;50.920;4.628;2023-07-08T14:06:31;4.03;;;3.25;;
15130;SDS011;7666;50.920;4.628;2023-07-08T14:09:19;5.05;;;2.83;;
15130;SDS011;7666;50.920;4.628;2023-07-08T14:12:06;5.03;;;2.90;;
15130;SDS011;7666;50.920;4.628;2023-07-08T14:14:53;7.10;;;3.75;;
15130;SDS011;7666;50.920;4.628;2023-07-08T14:17:39;7.00;;;3.40;;
15130;SDS011;7666;50.920;4.628;2023-07-08T14:20:26;7.50;;;3.53;;
15130;SDS011;7666;50.920;4.628;2023-07-08T14:23:13;7.18;;;3.58;;
15130;SDS011;7666;50.920;4.628;2023-07-08T14:25:59;6.80;;;3.72;;
15130;SDS011;7666;50.920;4.628;2023-07-08T14:28:46;5.95;;;3.78;;
15130;SDS011;7666;50.920;4.628;2023-07-08T14:31:32;7.70;;;3.60;;
15130;SDS011;7666;50.920;4.628;2023-07-08T14:34:23;7.80;;;3.75;;
15130;SDS011;7666;50.920;4.628;2023-07-08T14:37:14;4.40;;;3.38;;
15130;SDS011;7666;50.920;4.628;2023-07-08T14:40:10;5.70;;;3.38;;
15130;SDS011;7666;50.920;4.628;2023-07-08T14:43:00;4.75;;;3.50;;
15130;SDS011;7666;50.920;4.628;2023-07-08T14:45:50;5.53;;;3.20;;
15130;SDS011;7666;50.920;4.628;2023-07-08T14:48:39;6.90;;;3.60;;
15130;SDS011;7666;50.920;4.628;2023-07-08T14:51:25;6.40;;;3.60;;
15130;SDS011;7666;50.920;4.628;2023-07-08T14:54:11;6.35;;;3.30;;
15130;SDS011;7666;50.920;4.628;2023-07-08T14:56:57;4.47;;;3.08;;
15130;SDS011;7666;50.920;4.628;2023-07-08T14:59:45;8.75;;;3.33;;
15130;SDS011;7666;50.920;4.628;2023-07-08T15:02:31;3.80;;;3.08;;
15130;SDS011;7666;50.920;4.628;2023-07-08T15:05:25;4.05;;;2.92;;
15130;SDS011;7666;50.920;4.628;2023-07-08T15:08:13;5.63;;;3.20;;
15130;SDS011;7666;50.920;4.628;2023-07-08T15:10:59;5.80;;;3.15;;
15130;SDS011;7666;50.920;4.628;2023-07-08T15:13:46;6.55;;;3.30;;
15130;SDS011;7666;50.920;4.628;2023-07-08T15:16:32;4.85;;;3.00;;
15130;SDS011;7666;50.920;4.628;2023-07-08T15:19:21;5.25;;;3.13;;
15130;SDS011;7666;50.920;4.628;2023-07-08T15:22:07;3.97;;;3.03;;
15130;SDS011;7666;50.920;4.628;2023-07-08T15:24:53;6.95;;;3.20;;
15130;SDS011;7666;50.920;4.628;2023-07-08T15:27:43;6.28;;;3.20;;
15130;SDS011;7666;50.920;4.628;2023-07-08T15:30:32;4.53;;;3.13;;
15130;SDS011;7666;50.920;4.628;2023-07-08T15:33:17;3.60;;;2.90;;
15130;SDS011;7666;50.920;4.628;2023-07-08T15:36:03;5.30;;;3.15;;
15130;SDS011;7666;50.920;4.628;2023-07-08T15:38:50;4.45;;;3.25;;
15130;SDS011;7666;50.920;4.628;2023-07-08T15:41:36;5.93;;;3.30;;
15130;SDS011;7666;50.920;4.628;2023-07-08T15:44:24;6.18;;;3.15;;
15130;SDS011;7666;50.920;4.628;2023-07-08T15:47:11;6.10;;;3.65;;
15130;SDS011;7666;50.920;4.628;2023-07-08T15:49:58;5.50;;;3.58;;
15130;SDS011;7666;50.920;4.628;2023-07-08T15:52:44;4.63;;;3.30;;
15130;SDS011;7666;50.920;4.628;2023-07-08T15:55:30;8.20;;;3.40;;
15130;SDS011;7666;50.920;4.628;2023-07-08T15:58:26;7.32;;;3.25;;
15130;SDS011;7666;50.920;4.628;2023-07-08T16:01:20;5.60;;;3.35;;
15130;SDS011;7666;50.920;4.628;2023-07-08T16:04:15;5.68;;;3.80;;
15130;SDS011;7666;50.920;4.628;2023-07-08T16:07:17;7.90;;;3.80;;
15130;SDS011;7666;50.920;4.628;2023-07-08T16:10:03;7.00;;;3.92;;
15130;SDS011;7666;50.920;4.628;2023-07-08T16:12:49;7.97;;;4.45;;
15130;SDS011;7666;50.920;4.628;2023-07-08T16:15:36;5.22;;;4.15;;
15130;SDS011;7666;50.920;4.628;2023-07-08T16:18:27;5.50;;;3.70;;
15130;SDS011;7666;50.920;4.628;2023-07-08T16:21:13;5.63;;;4.00;;
15130;SDS011;7666;50.920;4.628;2023-07-08T16:23:59;6.55;;;4.43;;
15130;SDS011;7666;50.920;4.628;2023-07-08T16:26:45;7.22;;;4.20;;
15130;SDS011;7666;50.920;4.628;2023-07-08T16:29:31;6.55;;;3.92;;
15130;SDS011;7666;50.920;4.628;2023-07-08T16:32:18;6.15;;;3.78;;
15130;SDS011;7666;50.920;4.628;2023-07-08T16:35:11;6.63;;;3.90;;
15130;SDS011;7666;50.920;4.628;2023-07-08T16:37:59;5.47;;;3.67;;
15130;SDS011;7666;50.920;4.628;2023-07-08T16:40:45;8.68;;;4.45;;
15130;SDS011;7666;50.920;4.628;2023-07-08T16:43:31;8.35;;;4.45;;
15130;SDS011;7666;50.920;4.628;2023-07-08T16:46:17;6.43;;;4.05;;
15130;SDS011;7666;50.920;4.628;2023-07-08T16:49:03;5.78;;;4.10;;
15130;SDS011;7666;50.920;4.628;2023-07-08T16:51:49;6.78;;;4.10;;
15130;SDS011;7666;50.920;4.628;2023-07-08T16:54:35;6.10;;;4.00;;
15130;SDS011;7666;50.920;4.628;2023-07-08T16:57:22;7.63;;;4.40;;
15130;SDS011;7666;50.920;4.628;2023-07-08T17:00:12;7.28;;;4.45;;
15130;SDS011;7666;50.920;4.628;2023-07-08T17:03:01;8.35;;;4.78;;
15130;SDS011;7666;50.920;4.628;2023-07-08T17:05:48;8.15;;;4.30;;
15130;SDS011;7666;50.920;4.628;2023-07-08T17:08:34;6.00;;;4.45;;
15130;SDS011;7666;50.920;4.628;2023-07-08T17:11:20;7.32;;;4.82;;
15130;SDS011;7666;50.920;4.628;2023-07-08T17:14:07;6.45;;;4.55;;
15130;SDS011;7666;50.920;4.628;2023-07-08T17:16:53;7.75;;;4.90;;
15130;SDS011;7666;50.920;4.628;2023-07-08T17:19:40;6.80;;;4.32;;
15130;SDS011;7666;50.920;4.628;2023-07-08T17:22:26;8.70;;;4.72;;
15130;SDS011;7666;50.920;4.628;2023-07-08T17:25:12;6.90;;;4.65;;
15130;SDS011;7666;50.920;4.628;2023-07-08T17:28:06;6.22;;;4.60;;
15130;SDS011;7666;50.920;4.628;2023-07-08T17:30:52;7.50;;;4.53;;
15130;SDS011;7666;50.920;4.628;2023-07-08T17:33:39;7.22;;;4.80;;
15130;SDS011;7666;50.920;4.628;2023-07-08T17:36:29;6.57;;;4.60;;
15130;SDS011;7666;50.920;4.628;2023-07-08T17:39:19;7.97;;;4.63;;
15130;SDS011;7666;50.920;4.628;2023-07-08T17:42:06;7.80;;;4.78;;
15130;SDS011;7666;50.920;4.628;2023-07-08T17:44:52;6.07;;;4.07;;
15130;SDS011;7666;50.920;4.628;2023-07-08T17:47:38;6.78;;;4.20;;
15130;SDS011;7666;50.920;4.628;2023-07-08T17:50:24;5.88;;;4.30;;
15130;SDS011;7666;50.920;4.628;2023-07-08T17:53:11;7.30;;;4.82;;
15130;SDS011;7666;50.920;4.628;2023-07-08T17:55:57;7.97;;;4.40;;
15130;SDS011;7666;50.920;4.628;2023-07-08T17:58:43;8.10;;;4.82;;